sensor_id;sensor_type;location;lat;lon;timestamp;P1;durP1;ratioP1;P2;durP2;ratioP2
16440;SDS011;8330;-33.858;151.184;2023-08-08T00:00:08;6.35;;;4.30;;
16440;SDS011;8330;-33.858;151.184;2023-08-08T00:02:39;8.10;;;4.00;;
16440;SDS011;8330;-33.858;151.184;2023-08-08T00:05:10;9.60;;;4.38;;
16440;SDS011;8330;-33.858;151.184;2023-08-08T00:07:41;9.20;;;4.45;;
16440;SDS011;8330;-33.858;151.184;2023-08-08T00:10:13;9.07;;;3.95;;
16440;SDS011;8330;-33.858;151.184;2023-08-08T00:12:44;6.15;;;4.00;;
16440;SDS011;8330;-33.858;151.184;2023-08-08T00:15:16;7.07;;;4.20;;
16440;SDS011;8330;-33.858;151.184;2023-08-08T00:17:48;5.60;;;4.25;;
16440;SDS011;8330;-33.858;151.184;2023-08-08T00:20:18;6.43;;;4.20;;
16440;SDS011;8330;-33.858;151.184;2023-08-08T00:22:49;7.80;;;4.35;;
16440;SDS011;8330;-33.858;151.184;2023-08-08T00:25:22;4.55;;;3.70;;
16440;SDS011;8330;-33.858;151.184;2023-08-08T00:27:53;6.53;;;4.72;;
16440;SDS011;8330;-33.858;151.184;2023-08-08T00:30:23;6.28;;;3.85;;
16440;SDS011;8330;-33.858;151.184;2023-08-08T00:32:54;6.13;;;3.80;;
16440;SDS011;8330;-33.858;151.184;2023-08-08T00:35:25;6.47;;;4.13;;
16440;SDS011;8330;-33.858;151.184;2023-08-08T00:37:56;7.50;;;4.22;;
16440;SDS011;8330;-33.858;151.184;2023-08-08T00:40:28;6.10;;;3.85;;
16440;SDS011;8330;-33.858;151.184;2023-08-08T00:42:59;6.75;;;3.47;;
16440;SDS011;8330;-33.858;151.184;2023-08-08T00:45:30;5.95;;;3.60;;
16440;SDS011;8330;-33.858;151.184;2023-08-08T00:48:01;6.60;;;4.60;;
16440;SDS011;8330;-33.858;151.184;2023-08-08T00:50:32;7.15;;;3.72;;
16440;SDS011;8330;-33.858;151.184;2023-08-08T00:53:03;5.85;;;4.05;;
16440;SDS011;8330;-33.858;151.184;2023-08-08T00:55:37;10.40;;;4.60;;
16440;SDS011;8330;-33.858;151.184;2023-08-08T00:58:09;7.50;;;4.00;;
16440;SDS011;8330;-33.858;151.184;2023-08-08T01:00:40;5.68;;;3.75;;
16440;SDS011;8330;-33.858;151.184;2023-08-08T01:03:11;8.77;;;4.32;;
16440;SDS011;8330;-33.858;151.184;2023-08-08T01:05:43;7.05;;;4.20;;
16440;SDS011;8330;-33.858;151.184;2023-08-08T01:08:21;6.70;;;3.83;;
16440;SDS011;8330;-33.858;151.184;2023-08-08T01:10:58;9.40;;;4.00;;
16440;SDS011;8330;-33.858;151.184;2023-08-08T01:13:30;6.97;;;4.18;;
16440;SDS011;8330;-33.858;151.184;2023-08-08T01:16:02;5.28;;;3.45;;
16440;SDS011;8330;-33.858;151.184;2023-08-08T01:18:33;7.20;;;3.83;;
16440;SDS011;8330;-33.858;151.184;2023-08-08T01:21:06;4.03;;;2.97;;
16440;SDS011;8330;-33.858;151.184;2023-08-08T01:23:42;5.95;;;3.30;;
16440;SDS011;8330;-33.858;151.184;2023-08-08T01:26:20;9.38;;;4.15;;
16440;SDS011;8330;-33.858;151.184;2023-08-08T01:28:52;6.45;;;3.90;;
16440;SDS011;8330;-33.858;151.184;2023-08-08T01:31:23;5.45;;;4.10;;
16440;SDS011;8330;-33.858;151.184;2023-08-08T01:33:54;6.53;;;4.00;;
16440;SDS011;8330;-33.858;151.184;2023-08-08T01:36:27;8.55;;;4.05;;
16440;SDS011;8330;-33.858;151.184;2023-08-08T01:39:04;6.32;;;3.90;;
16440;SDS011;8330;-33.858;151.184;2023-08-08T01:41:40;7.35;;;3.70;;
16440;SDS011;8330;-33.858;151.184;2023-08-08T01:44:13;4.78;;;3.10;;
16440;SDS011;8330;-33.858;151.184;2023-08-08T01:46:44;5.38;;;2.55;;
16440;SDS011;8330;-33.858;151.184;2023-08-08T01:49:16;7.00;;;2.15;;
16440;SDS011;8330;-33.858;151.184;2023-08-08T01:51:49;5.43;;;2.38;;
16440;SDS011;8330;-33.858;151.184;2023-08-08T01:54:20;3.22;;;2.03;;
16440;SDS011;8330;-33.858;151.184;2023-08-08T01:56:53;3.83;;;1.98;;
16440;SDS011;8330;-33.858;151.184;2023-08-08T01:59:24;5.43;;;2.55;;
16440;SDS011;8330;-33.858;151.184;2023-08-08T02:01:55;3.28;;;1.92;;
16440;SDS011;8330;-33.858;151.184;2023-08-08T02:04:26;4.57;;;2.40;;
16440;SDS011;8330;-33.858;151.184;2023-08-08T02:06:56;4.72;;;2.55;;
16440;SDS011;8330;-33.858;151.184;2023-08-08T02:09:27;5.60;;;2.10;;
16440;SDS011;8330;-33.858;151.184;2023-08-08T02:12:00;3.70;;;2.22;;
16440;SDS011;8330;-33.858;151.184;2023-08-08T02:14:31;4.13;;;2.05;;
16440;SDS011;8330;-33.858;151.184;2023-08-08T02:17:03;7.55;;;3.20;;
16440;SDS011;8330;-33.858;151.184;2023-08-08T02:19:34;3.60;;;1.92;;
16440;SDS011;8330;-33.858;151.184;2023-08-08T02:22:08;1.95;;;1.63;;
16440;SDS011;8330;-33.858;151.184;2023-08-08T02:24:39;4.43;;;1.88;;
16440;SDS011;8330;-33.858;151.184;2023-08-08T02:27:12;6.45;;;1.70;;
16440;SDS011;8330;-33.858;151.184;2023-08-08T02:29:43;4.55;;;1.80;;
16440;SDS011;8330;-33.858;151.184;2023-08-08T02:32:13;4.97;;;1.50;;
16440;SDS011;8330;-33.858;151.184;2023-08-08T02:34:45;4.65;;;1.70;;
16440;SDS011;8330;-33.858;151.184;2023-08-08T02:37:15;3.28;;;1.50;;
16440;SDS011;8330;-33.858;151.184;2023-08-08T02:39:46;2.83;;;1.55;;
16440;SDS011;8330;-33.858;151.184;2023-08-08T02:42:19;3.15;;;1.92;;
16440;SDS011;8330;-33.858;151.184;2023-08-08T02:44:49;2.55;;;1.52;;
16440;SDS011;8330;-33.858;151.184;2023-08-08T02:47:20;3.55;;;1.45;;
16440;SDS011;8330;-33.858;151.184;2023-08-08T02:49:51;2.92;;;1.85;;
16440;SDS011;8330;-33.858;151.184;2023-08-08T02:52:22;2.97;;;1.80;;
16440;SDS011;8330;-33.858;151.184;2023-08-08T02:54:53;3.03;;;1.73;;
16440;SDS011;8330;-33.858;151.184;2023-08-08T02:57:26;2.10;;;1.60;;
16440;SDS011;8330;-33.858;151.184;2023-08-08T02:59:56;3.65;;;1.50;;
16440;SDS011;8330;-33.858;151.184;2023-08-08T03:02:27;4.72;;;1.70;;
16440;SDS011;8330;-33.858;151.184;2023-08-08T03:04:58;2.78;;;1.35;;
16440;SDS011;8330;-33.858;151.184;2023-08-08T03:07:30;4.60;;;1.80;;
16440;SDS011;8330;-33.858;151.184;2023-08-08T03:10:01;4.20;;;1.80;;
16440;SDS011;8330;-33.858;151.184;2023-08-08T03:12:34;4.32;;;1.80;;
16440;SDS011;8330;-33.858;151.184;2023-08-08T03:15:06;2.67;;;1.60;;
16440;SDS011;8330;-33.858;151.184;2023-08-08T03:17:37;2.45;;;1.70;;
16440;SDS011;8330;-33.858;151.184;2023-08-08T03:20:08;3.47;;;1.67;;
16440;SDS011;8330;-33.858;151.184;2023-08-08T03:22:40;3.33;;;1.45;;
16440;SDS011;8330;-33.858;151.184;2023-08-08T03:25:10;5.28;;;1.95;;
16440;SDS011;8330;-33.858;151.184;2023-08-08T03:27:43;2.50;;;1.20;;
16440;SDS011;8330;-33.858;151.184;2023-08-08T03:30:14;1.85;;;1.55;;
16440;SDS011;8330;-33.858;151.184;2023-08-08T03:32:45;1.60;;;1.10;;
16440;SDS011;8330;-33.858;151.184;2023-08-08T03:35:15;2.33;;;1.17;;
16440;SDS011;8330;-33.858;151.184;2023-08-08T03:37:46;3.88;;;1.35;;
16440;SDS011;8330;-33.858;151.184;2023-08-08T03:40:17;3.65;;;1.27;;
16440;SDS011;8330;-33.858;151.184;2023-08-08T03:42:50;3.78;;;1.50;;
16440;SDS011;8330;-33.858;151.184;2023-08-08T03:45:20;3.35;;;1.40;;
16440;SDS011;8330;-33.858;151.184;2023-08-08T03:47:51;1.80;;;1.48;;
16440;SDS011;8330;-33.858;151.184;2023-08-08T03:50:22;2.85;;;1.50;;
16440;SDS011;8330;-33.858;151.184;2023-08-08T03:52:53;3.17;;;1.40;;
16440;SDS011;8330;-33.858;151.184;2023-08-08T03:55:24;3.63;;;1.40;;
16440;SDS011;8330;-33.858;151.184;2023-08-08T03:57:57;4.07;;;1.55;;
16440;SDS011;8330;-33.858;151.184;2023-08-08T04:00:28;4.63;;;1.60;;
16440;SDS011;8330;-33.858;151.184;2023-08-08T04:02:58;3.38;;;1.50;;
16440;SDS011;8330;-33.858;151.184;2023-08-08T04:05:29;3.78;;;2.20;;
16440;SDS011;8330;-33.858;151.184;2023-08-08T04:08:00;2.67;;;1.20;;
16440;SDS011;8330;-33.858;151.184;2023-08-08T04:10:31;1.55;;;1.25;;
16440;SDS011;8330;-33.858;151.184;2023-08-08T04:13:04;2.47;;;1.50;;
16440;SDS011;8330;-33.858;151.184;2023-08-08T04:15:35;2.85;;;1.35;;
16440;SDS011;8330;-33.858;151.184;2023-08-08T04:18:05;2.70;;;1.15;;
16440;SDS011;8330;-33.858;151.184;2023-08-08T04:20:36;2.55;;;1.35;;
16440;SDS011;8330;-33.858;151.184;2023-08-08T04:23:07;2.50;;;1.13;;
16440;SDS011;8330;-33.858;151.184;2023-08-08T04:25:38;3.17;;;1.40;;
16440;SDS011;8330;-33.858;151.184;2023-08-08T04:28:17;2.80;;;1.30;;
16440;SDS011;8330;-33.858;151.184;2023-08-08T04:30:48;2.17;;;1.33;;
16440;SDS011;8330;-33.858;151.184;2023-08-08T04:33:19;4.40;;;1.80;;
16440;SDS011;8330;-33.858;151.184;2023-08-08T04:35:50;5.10;;;1.70;;
16440;SDS011;8330;-33.858;151.184;2023-08-08T04:38:20;5.13;;;1.70;;
16440;SDS011;8330;-33.858;151.184;2023-08-08T04:40:51;4.03;;;1.40;;
16440;SDS011;8330;-33.858;151.184;2023-08-08T04:43:24;9.70;;;2.28;;
16440;SDS011;8330;-33.858;151.184;2023-08-08T04:45:55;4.88;;;1.70;;
16440;SDS011;8330;-33.858;151.184;2023-08-08T04:48:26;3.00;;;1.60;;
16440;SDS011;8330;-33.858;151.184;2023-08-08T04:50:56;2.40;;;1.40;;
16440;SDS011;8330;-33.858;151.184;2023-08-08T04:53:27;4.13;;;1.60;;
16440;SDS011;8330;-33.858;151.184;2023-08-08T04:55:58;3.38;;;1.65;;
16440;SDS011;8330;-33.858;151.184;2023-08-08T04:58:31;4.22;;;1.50;;
16440;SDS011;8330;-33.858;151.184;2023-08-08T05:01:01;5.57;;;1.70;;
16440;SDS011;8330;-33.858;151.184;2023-08-08T05:03:34;3.25;;;1.50;;
16440;SDS011;8330;-33.858;151.184;2023-08-08T05:06:05;2.28;;;1.50;;
16440;SDS011;8330;-33.858;151.184;2023-08-08T05:08:36;3.50;;;1.60;;
16440;SDS011;8330;-33.858;151.184;2023-08-08T05:11:07;2.17;;;1.35;;
16440;SDS011;8330;-33.858;151.184;2023-08-08T05:13:39;3.63;;;1.33;;
16440;SDS011;8330;-33.858;151.184;2023-08-08T05:16:11;2.60;;;1.40;;
16440;SDS011;8330;-33.858;151.184;2023-08-08T05:18:41;3.50;;;1.30;;
16440;SDS011;8330;-33.858;151.184;2023-08-08T05:21:12;4.10;;;1.40;;
16440;SDS011;8330;-33.858;151.184;2023-08-08T05:23:43;4.32;;;1.50;;
16440;SDS011;8330;-33.858;151.184;2023-08-08T05:26:14;3.58;;;1.63;;
16440;SDS011;8330;-33.858;151.184;2023-08-08T05:28:47;3.25;;;1.55;;
16440;SDS011;8330;-33.858;151.184;2023-08-08T05:31:17;4.00;;;1.67;;
16440;SDS011;8330;-33.858;151.184;2023-08-08T05:33:48;3.72;;;1.25;;
16440;SDS011;8330;-33.858;151.184;2023-08-08T05:36:19;3.35;;;1.33;;
16440;SDS011;8330;-33.858;151.184;2023-08-08T05:38:50;3.05;;;1.40;;
16440;SDS011;8330;-33.858;151.184;2023-08-08T05:41:20;3.70;;;1.48;;
16440;SDS011;8330;-33.858;151.184;2023-08-08T05:43:53;2.80;;;1.50;;
16440;SDS011;8330;-33.858;151.184;2023-08-08T05:46:25;2.95;;;1.35;;
16440;SDS011;8330;-33.858;151.184;2023-08-08T05:48:56;5.78;;;1.70;;
16440;SDS011;8330;-33.858;151.184;2023-08-08T05:51:27;2.40;;;1.30;;
16440;SDS011;8330;-33.858;151.184;2023-08-08T05:53:59;2.72;;;1.33;;
16440;SDS011;8330;-33.858;151.184;2023-08-08T05:56:34;4.90;;;1.98;;
16440;SDS011;8330;-33.858;151.184;2023-08-08T05:59:07;4.90;;;1.65;;
16440;SDS011;8330;-33.858;151.184;2023-08-08T06:01:38;4.43;;;1.42;;
16440;SDS011;8330;-33.858;151.184;2023-08-08T06:04:12;3.70;;;1.30;;
16440;SDS011;8330;-33.858;151.184;2023-08-08T06:06:43;1.80;;;1.30;;
16440;SDS011;8330;-33.858;151.184;2023-08-08T06:09:15;2.90;;;1.23;;
16440;SDS011;8330;-33.858;151.184;2023-08-08T06:11:49;2.92;;;1.30;;
16440;SDS011;8330;-33.858;151.184;2023-08-08T06:14:22;2.40;;;1.38;;
16440;SDS011;8330;-33.858;151.184;2023-08-08T06:16:53;2.92;;;1.38;;
16440;SDS011;8330;-33.858;151.184;2023-08-08T06:19:23;2.60;;;1.25;;
16440;SDS011;8330;-33.858;151.184;2023-08-08T06:21:55;2.95;;;1.30;;
16440;SDS011;8330;-33.858;151.184;2023-08-08T06:24:25;2.35;;;1.10;;
16440;SDS011;8330;-33.858;151.184;2023-08-08T06:26:56;4.57;;;1.30;;
16440;SDS011;8330;-33.858;151.184;2023-08-08T06:29:30;4.32;;;1.50;;
16440;SDS011;8330;-33.858;151.184;2023-08-08T06:32:01;4.82;;;1.50;;
16440;SDS011;8330;-33.858;151.184;2023-08-08T06:34:35;2.25;;;1.10;;
16440;SDS011;8330;-33.858;151.184;2023-08-08T06:37:06;3.55;;;1.20;;
16440;SDS011;8330;-33.858;151.184;2023-08-08T06:39:37;3.75;;;1.30;;
16440;SDS011;8330;-33.858;151.184;2023-08-08T06:42:08;3.28;;;1.40;;
16440;SDS011;8330;-33.858;151.184;2023-08-08T06:44:43;6.15;;;1.40;;
16440;SDS011;8330;-33.858;151.184;2023-08-08T06:47:14;3.08;;;1.13;;
16440;SDS011;8330;-33.858;151.184;2023-08-08T06:49:45;2.65;;;1.20;;
16440;SDS011;8330;-33.858;151.184;2023-08-08T06:52:15;3.63;;;1.40;;
16440;SDS011;8330;-33.858;151.184;2023-08-08T06:54:46;4.07;;;1.35;;
16440;SDS011;8330;-33.858;151.184;2023-08-08T06:57:17;3.28;;;1.20;;
16440;SDS011;8330;-33.858;151.184;2023-08-08T06:59:55;3.63;;;1.50;;
16440;SDS011;8330;-33.858;151.184;2023-08-08T07:02:26;2.00;;;1.10;;
16440;SDS011;8330;-33.858;151.184;2023-08-08T07:05:00;3.42;;;1.50;;
16440;SDS011;8330;-33.858;151.184;2023-08-08T07:07:31;2.08;;;1.00;;
16440;SDS011;8330;-33.858;151.184;2023-08-08T07:10:02;3.30;;;1.33;;
16440;SDS011;8330;-33.858;151.184;2023-08-08T07:12:50;3.25;;;1.27;;
16440;SDS011;8330;-33.858;151.184;2023-08-08T07:15:23;3.35;;;1.40;;
16440;SDS011;8330;-33.858;151.184;2023-08-08T07:17:54;2.17;;;1.30;;
16440;SDS011;8330;-33.858;151.184;2023-08-08T07:20:24;2.38;;;1.17;;
16440;SDS011;8330;-33.858;151.184;2023-08-08T07:22:58;2.83;;;1.45;;
16440;SDS011;8330;-33.858;151.184;2023-08-08T07:25:31;3.65;;;1.52;;
16440;SDS011;8330;-33.858;151.184;2023-08-08T07:28:03;5.57;;;1.70;;
16440;SDS011;8330;-33.858;151.184;2023-08-08T07:33:31;3.50;;;1.38;;
16440;SDS011;8330;-33.858;151.184;2023-08-08T07:36:02;2.72;;;1.50;;
16440;SDS011;8330;-33.858;151.184;2023-08-08T07:38:33;3.50;;;1.85;;
16440;SDS011;8330;-33.858;151.184;2023-08-08T07:41:04;3.30;;;1.50;;
16440;SDS011;8330;-33.858;151.184;2023-08-08T07:43:36;3.10;;;1.60;;
16440;SDS011;8330;-33.858;151.184;2023-08-08T07:46:09;3.22;;;1.67;;
16440;SDS011;8330;-33.858;151.184;2023-08-08T07:48:39;4.30;;;1.50;;
16440;SDS011;8330;-33.858;151.184;2023-08-08T07:51:11;4.95;;;2.47;;
16440;SDS011;8330;-33.858;151.184;2023-08-08T07:53:41;3.20;;;1.90;;
16440;SDS011;8330;-33.858;151.184;2023-08-08T07:56:15;3.88;;;1.83;;
16440;SDS011;8330;-33.858;151.184;2023-08-08T07:58:46;3.92;;;1.73;;
16440;SDS011;8330;-33.858;151.184;2023-08-08T08:01:19;4.53;;;2.05;;
16440;SDS011;8330;-33.858;151.184;2023-08-08T08:03:50;4.88;;;1.88;;
16440;SDS011;8330;-33.858;151.184;2023-08-08T08:06:21;3.75;;;1.77;;
16440;SDS011;8330;-33.858;151.184;2023-08-08T08:08:52;5.85;;;2.72;;
16440;SDS011;8330;-33.858;151.184;2023-08-08T08:11:23;7.13;;;2.40;;
16440;SDS011;8330;-33.858;151.184;2023-08-08T08:13:55;5.95;;;1.92;;
16440;SDS011;8330;-33.858;151.184;2023-08-08T08:16:28;2.45;;;1.92;;
16440;SDS011;8330;-33.858;151.184;2023-08-08T08:18:59;4.45;;;2.10;;
16440;SDS011;8330;-33.858;151.184;2023-08-08T08:21:30;2.28;;;1.77;;
16440;SDS011;8330;-33.858;151.184;2023-08-08T08:24:01;5.82;;;2.80;;
16440;SDS011;8330;-33.858;151.184;2023-08-08T08:26:32;3.17;;;2.58;;
16440;SDS011;8330;-33.858;151.184;2023-08-08T08:29:03;4.65;;;2.60;;
16440;SDS011;8330;-33.858;151.184;2023-08-08T08:31:36;6.07;;;3.58;;
16440;SDS011;8330;-33.858;151.184;2023-08-08T08:34:06;7.28;;;4.40;;
16440;SDS011;8330;-33.858;151.184;2023-08-08T08:36:37;8.15;;;5.05;;
16440;SDS011;8330;-33.858;151.184;2023-08-08T08:39:08;7.78;;;5.25;;
16440;SDS011;8330;-33.858;151.184;2023-08-08T08:41:43;7.78;;;3.50;;
16440;SDS011;8330;-33.858;151.184;2023-08-08T08:44:18;4.97;;;3.70;;
16440;SDS011;8330;-33.858;151.184;2023-08-08T08:46:53;8.35;;;4.85;;
16440;SDS011;8330;-33.858;151.184;2023-08-08T08:49:25;6.93;;;3.80;;
16440;SDS011;8330;-33.858;151.184;2023-08-08T08:51:59;9.18;;;4.18;;
16440;SDS011;8330;-33.858;151.184;2023-08-08T08:54:32;8.38;;;3.97;;
16440;SDS011;8330;-33.858;151.184;2023-08-08T08:57:03;6.28;;;3.50;;
16440;SDS011;8330;-33.858;151.184;2023-08-08T08:59:34;7.80;;;4.97;;
16440;SDS011;8330;-33.858;151.184;2023-08-08T09:02:07;7.15;;;4.20;;
16440;SDS011;8330;-33.858;151.184;2023-08-08T09:04:39;6.97;;;3.70;;
16440;SDS011;8330;-33.858;151.184;2023-08-08T09:07:11;5.10;;;3.00;;
16440;SDS011;8330;-33.858;151.184;2023-08-08T09:09:43;7.28;;;3.35;;
16440;SDS011;8330;-33.858;151.184;2023-08-08T09:12:14;4.05;;;2.72;;
16440;SDS011;8330;-33.858;151.184;2023-08-08T09:14:45;5.93;;;3.50;;
16440;SDS011;8330;-33.858;151.184;2023-08-08T09:17:18;8.40;;;3.40;;
16440;SDS011;8330;-33.858;151.184;2023-08-08T09:19:49;5.78;;;3.35;;
16440;SDS011;8330;-33.858;151.184;2023-08-08T09:22:24;4.55;;;2.80;;
16440;SDS011;8330;-33.858;151.184;2023-08-08T09:24:55;4.75;;;3.10;;
16440;SDS011;8330;-33.858;151.184;2023-08-08T09:27:26;7.07;;;2.90;;
16440;SDS011;8330;-33.858;151.184;2023-08-08T09:29:58;5.22;;;3.03;;
16440;SDS011;8330;-33.858;151.184;2023-08-08T09:32:32;7.15;;;3.22;;
16440;SDS011;8330;-33.858;151.184;2023-08-08T09:35:03;4.38;;;3.13;;
16440;SDS011;8330;-33.858;151.184;2023-08-08T09:37:36;5.97;;;3.17;;
16440;SDS011;8330;-33.858;151.184;2023-08-08T09:40:08;7.05;;;3.42;;
16440;SDS011;8330;-33.858;151.184;2023-08-08T09:42:39;5.47;;;3.20;;
16440;SDS011;8330;-33.858;151.184;2023-08-08T09:45:10;8.23;;;3.17;;
16440;SDS011;8330;-33.858;151.184;2023-08-08T09:47:43;6.03;;;3.03;;
16440;SDS011;8330;-33.858;151.184;2023-08-08T09:50:14;6.35;;;3.05;;
16440;SDS011;8330;-33.858;151.184;2023-08-08T09:52:46;6.10;;;3.20;;
16440;SDS011;8330;-33.858;151.184;2023-08-08T09:55:17;6.30;;;3.28;;
16440;SDS011;8330;-33.858;151.184;2023-08-08T09:57:49;4.65;;;2.83;;
16440;SDS011;8330;-33.858;151.184;2023-08-08T10:00:22;4.50;;;2.58;;
16440;SDS011;8330;-33.858;151.184;2023-08-08T10:02:56;5.70;;;2.47;;
16440;SDS011;8330;-33.858;151.184;2023-08-08T10:05:27;5.80;;;2.63;;
16440;SDS011;8330;-33.858;151.184;2023-08-08T10:07:58;6.70;;;3.10;;
16440;SDS011;8330;-33.858;151.184;2023-08-08T10:10:30;6.38;;;2.95;;
16440;SDS011;8330;-33.858;151.184;2023-08-08T10:13:01;5.90;;;2.90;;
16440;SDS011;8330;-33.858;151.184;2023-08-08T10:15:32;5.95;;;2.92;;
16440;SDS011;8330;-33.858;151.184;2023-08-08T10:18:10;6.35;;;2.85;;
16440;SDS011;8330;-33.858;151.184;2023-08-08T10:20:43;5.53;;;2.72;;
16440;SDS011;8330;-33.858;151.184;2023-08-08T10:23:19;5.93;;;3.00;;
16440;SDS011;8330;-33.858;151.184;2023-08-08T10:25:51;7.97;;;3.50;;
16440;SDS011;8330;-33.858;151.184;2023-08-08T10:28:24;11.38;;;5.63;;
16440;SDS011;8330;-33.858;151.184;2023-08-08T10:30:57;7.28;;;3.97;;
16440;SDS011;8330;-33.858;151.184;2023-08-08T10:33:42;9.32;;;3.58;;
16440;SDS011;8330;-33.858;151.184;2023-08-08T10:36:12;8.65;;;3.80;;
16440;SDS011;8330;-33.858;151.184;2023-08-08T10:38:44;7.35;;;3.58;;
16440;SDS011;8330;-33.858;151.184;2023-08-08T10:41:16;7.20;;;3.60;;
16440;SDS011;8330;-33.858;151.184;2023-08-08T10:43:49;9.98;;;3.85;;
16440;SDS011;8330;-33.858;151.184;2023-08-08T10:46:23;7.38;;;4.03;;
16440;SDS011;8330;-33.858;151.184;2023-08-08T10:48:59;7.75;;;3.50;;
16440;SDS011;8330;-33.858;151.184;2023-08-08T10:51:34;7.45;;;3.72;;
16440;SDS011;8330;-33.858;151.184;2023-08-08T10:54:15;7.90;;;3.00;;
16440;SDS011;8330;-33.858;151.184;2023-08-08T10:56:49;6.75;;;3.17;;
16440;SDS011;8330;-33.858;151.184;2023-08-08T10:59:21;7.32;;;3.60;;
16440;SDS011;8330;-33.858;151.184;2023-08-08T11:01:52;9.40;;;3.40;;
16440;SDS011;8330;-33.858;151.184;2023-08-08T11:04:25;14.70;;;4.43;;
16440;SDS011;8330;-33.858;151.184;2023-08-08T11:06:58;7.40;;;3.65;;
16440;SDS011;8330;-33.858;151.184;2023-08-08T11:09:30;8.55;;;4.00;;
16440;SDS011;8330;-33.858;151.184;2023-08-08T11:12:01;8.73;;;5.20;;
16440;SDS011;8330;-33.858;151.184;2023-08-08T11:14:33;7.63;;;4.20;;
16440;SDS011;8330;-33.858;151.184;2023-08-08T11:17:04;10.00;;;4.47;;
16440;SDS011;8330;-33.858;151.184;2023-08-08T11:19:40;6.93;;;4.25;;
16440;SDS011;8330;-33.858;151.184;2023-08-08T11:22:11;9.50;;;4.30;;
16440;SDS011;8330;-33.858;151.184;2023-08-08T11:24:42;7.03;;;4.25;;
16440;SDS011;8330;-33.858;151.184;2023-08-08T11:27:13;8.85;;;4.60;;
16440;SDS011;8330;-33.858;151.184;2023-08-08T11:29:49;7.75;;;4.30;;
16440;SDS011;8330;-33.858;151.184;2023-08-08T11:32:19;6.68;;;4.13;;
16440;SDS011;8330;-33.858;151.184;2023-08-08T11:34:52;5.05;;;3.65;;
16440;SDS011;8330;-33.858;151.184;2023-08-08T11:37:24;5.22;;;3.85;;
16440;SDS011;8330;-33.858;151.184;2023-08-08T11:39:55;6.10;;;3.80;;
16440;SDS011;8330;-33.858;151.184;2023-08-08T11:42:26;6.63;;;3.50;;
16440;SDS011;8330;-33.858;151.184;2023-08-08T11:44:57;6.97;;;4.00;;
16440;SDS011;8330;-33.858;151.184;2023-08-08T11:47:30;5.95;;;3.80;;
16440;SDS011;8330;-33.858;151.184;2023-08-08T11:50:06;7.53;;;3.85;;
16440;SDS011;8330;-33.858;151.184;2023-08-08T11:52:39;4.82;;;3.70;;
16440;SDS011;8330;-33.858;151.184;2023-08-08T11:55:11;7.30;;;3.90;;
16440;SDS011;8330;-33.858;151.184;2023-08-08T11:57:43;6.32;;;4.15;;
16440;SDS011;8330;-33.858;151.184;2023-08-08T12:00:14;4.60;;;3.45;;
16440;SDS011;8330;-33.858;151.184;2023-08-08T12:02:46;7.10;;;3.58;;
16440;SDS011;8330;-33.858;151.184;2023-08-08T12:05:20;8.88;;;4.00;;
16440;SDS011;8330;-33.858;151.184;2023-08-08T12:07:51;4.97;;;3.28;;
16440;SDS011;8330;-33.858;151.184;2023-08-08T12:10:22;7.38;;;4.20;;
16440;SDS011;8330;-33.858;151.184;2023-08-08T12:12:56;7.13;;;3.80;;
16440;SDS011;8330;-33.858;151.184;2023-08-08T12:15:31;6.40;;;4.15;;
16440;SDS011;8330;-33.858;151.184;2023-08-08T12:18:03;7.63;;;3.70;;
16440;SDS011;8330;-33.858;151.184;2023-08-08T12:20:36;7.53;;;3.90;;
16440;SDS011;8330;-33.858;151.184;2023-08-08T12:23:07;6.57;;;4.22;;
16440;SDS011;8330;-33.858;151.184;2023-08-08T12:25:37;9.30;;;5.03;;
16440;SDS011;8330;-33.858;151.184;2023-08-08T12:28:11;7.90;;;5.00;;
16440;SDS011;8330;-33.858;151.184;2023-08-08T12:30:42;6.25;;;4.45;;
16440;SDS011;8330;-33.858;151.184;2023-08-08T12:33:13;9.45;;;5.30;;
16440;SDS011;8330;-33.858;151.184;2023-08-08T12:35:46;8.15;;;4.85;;
16440;SDS011;8330;-33.858;151.184;2023-08-08T12:38:18;7.38;;;4.57;;
16440;SDS011;8330;-33.858;151.184;2023-08-08T12:40:48;9.77;;;5.32;;
16440;SDS011;8330;-33.858;151.184;2023-08-08T12:43:19;6.03;;;4.20;;
16440;SDS011;8330;-33.858;151.184;2023-08-08T12:45:50;10.30;;;4.68;;
16440;SDS011;8330;-33.858;151.184;2023-08-08T12:48:21;8.02;;;4.88;;
16440;SDS011;8330;-33.858;151.184;2023-08-08T12:50:54;8.95;;;4.82;;
16440;SDS011;8330;-33.858;151.184;2023-08-08T12:53:24;7.30;;;4.50;;
16440;SDS011;8330;-33.858;151.184;2023-08-08T12:55:55;8.32;;;4.55;;
16440;SDS011;8330;-33.858;151.184;2023-08-08T12:58:27;7.40;;;4.55;;
16440;SDS011;8330;-33.858;151.184;2023-08-08T13:00:58;7.35;;;4.82;;
16440;SDS011;8330;-33.858;151.184;2023-08-08T13:03:29;8.20;;;5.15;;
16440;SDS011;8330;-33.858;151.184;2023-08-08T13:06:03;8.63;;;4.90;;
16440;SDS011;8330;-33.858;151.184;2023-08-08T13:08:34;6.95;;;4.78;;
16440;SDS011;8330;-33.858;151.184;2023-08-08T13:11:05;12.40;;;5.22;;
16440;SDS011;8330;-33.858;151.184;2023-08-08T13:13:36;6.72;;;4.43;;
16440;SDS011;8330;-33.858;151.184;2023-08-08T13:16:07;6.47;;;4.75;;
16440;SDS011;8330;-33.858;151.184;2023-08-08T13:18:38;8.30;;;5.07;;
16440;SDS011;8330;-33.858;151.184;2023-08-08T13:21:11;7.95;;;5.18;;
16440;SDS011;8330;-33.858;151.184;2023-08-08T13:23:42;8.77;;;5.20;;
16440;SDS011;8330;-33.858;151.184;2023-08-08T13:26:13;7.03;;;4.72;;
16440;SDS011;8330;-33.858;151.184;2023-08-08T13:28:43;9.02;;;4.78;;
16440;SDS011;8330;-33.858;151.184;2023-08-08T13:31:16;11.40;;;5.15;;
16440;SDS011;8330;-33.858;151.184;2023-08-08T13:33:46;7.32;;;4.82;;
16440;SDS011;8330;-33.858;151.184;2023-08-08T13:36:19;8.63;;;4.90;;
16440;SDS011;8330;-33.858;151.184;2023-08-08T13:38:50;6.97;;;5.07;;
16440;SDS011;8330;-33.858;151.184;2023-08-08T13:41:21;9.98;;;5.25;;
16440;SDS011;8330;-33.858;151.184;2023-08-08T13:43:51;9.10;;;5.03;;
16440;SDS011;8330;-33.858;151.184;2023-08-08T13:46:22;6.07;;;4.70;;
16440;SDS011;8330;-33.858;151.184;2023-08-08T13:48:53;8.68;;;5.22;;
16440;SDS011;8330;-33.858;151.184;2023-08-08T13:51:26;7.00;;;4.70;;
16440;SDS011;8330;-33.858;151.184;2023-08-08T13:53:56;6.03;;;4.47;;
16440;SDS011;8330;-33.858;151.184;2023-08-08T13:56:27;9.13;;;4.85;;
16440;SDS011;8330;-33.858;151.184;2023-08-08T13:58:58;7.03;;;4.97;;
16440;SDS011;8330;-33.858;151.184;2023-08-08T14:01:29;7.32;;;4.82;;
16440;SDS011;8330;-33.858;151.184;2023-08-08T14:04:00;7.75;;;4.75;;
16440;SDS011;8330;-33.858;151.184;2023-08-08T14:06:33;6.68;;;4.38;;
16440;SDS011;8330;-33.858;151.184;2023-08-08T14:09:04;7.88;;;4.82;;
16440;SDS011;8330;-33.858;151.184;2023-08-08T14:11:34;5.90;;;4.43;;
16440;SDS011;8330;-33.858;151.184;2023-08-08T14:14:05;8.07;;;4.97;;
16440;SDS011;8330;-33.858;151.184;2023-08-08T14:16:36;7.82;;;4.95;;
16440;SDS011;8330;-33.858;151.184;2023-08-08T14:19:07;9.68;;;5.15;;
16440;SDS011;8330;-33.858;151.184;2023-08-08T14:21:41;7.82;;;4.78;;
16440;SDS011;8330;-33.858;151.184;2023-08-08T14:24:12;7.00;;;4.63;;
16440;SDS011;8330;-33.858;151.184;2023-08-08T14:26:43;6.65;;;4.38;;
16440;SDS011;8330;-33.858;151.184;2023-08-08T14:29:13;7.65;;;4.32;;
16440;SDS011;8330;-33.858;151.184;2023-08-08T14:31:44;9.40;;;4.80;;
16440;SDS011;8330;-33.858;151.184;2023-08-08T14:34:15;8.35;;;4.70;;
16440;SDS011;8330;-33.858;151.184;2023-08-08T14:36:48;7.65;;;4.72;;
16440;SDS011;8330;-33.858;151.184;2023-08-08T14:39:19;7.63;;;4.55;;
16440;SDS011;8330;-33.858;151.184;2023-08-08T14:41:49;5.47;;;4.10;;
16440;SDS011;8330;-33.858;151.184;2023-08-08T14:44:20;7.03;;;4.55;;
16440;SDS011;8330;-33.858;151.184;2023-08-08T14:46:51;7.68;;;4.55;;
16440;SDS011;8330;-33.858;151.184;2023-08-08T14:49:22;6.47;;;4.70;;